Brazos, New Mexico
Current Conditions -  °F | °C
As of 1:35 PM on Saturday 20 Dec 2014 (Local Time) from KPSO Reporting Station
Clear Clear  
Wind Chill: 32°   Ceiling: Unl
Heat Index: 36°   Visibility: 10mi
Dew Point: 20°   Wind: 5mph
Humidity: 53%   Direction: 190°S
Pressure: 30.07"   Gusts: NA
Location:  36.7516°N, 106.56°W
Report Text: KPSO 202035Z AUTO 19004KT 10SM CLR 02/M06 A3007 RMK AO2 T00231065
Loading
Personal Weather Stations






























Interactive Weather Map New forecast layout! Learn more

10-Day Weather Forecast

Advertisements
Track Severe Weather on mobile